Time;durP1;ratioP1;P1;durP2;ratioP2;P2;SDS_P1;SDS_P2;PMS_P1;PMS_P2;Temp;Humidity;BMP_temperature;BMP_pressure;BME280_temperature;BME280_humidity;BME280_pressure;Samples;Min_cycle;Max_cycle;Signal;HPM_P1;HPM_P2
2022/11/20 00:01:48;;;;;;;18.58;11.77;;;5.40;99.90;;;;;;5073791;28;20166;-50
2022/11/20 00:04:14;;;;;;;21.05;11.95;;;5.40;99.90;;;;;;5073298;28;20174;-49
2022/11/20 00:06:39;;;;;;;19.15;12.63;;;5.40;99.90;;;;;;5073351;28;20166;-50
2022/11/20 00:09:05;;;;;;;19.73;12.70;;;5.40;99.90;;;;;;5073189;28;20197;-50
2022/11/20 00:11:32;;;;;;;19.08;12.20;;;5.40;99.90;;;;;;5073259;28;20243;-50
2022/11/20 00:13:59;;;;;;;18.90;11.82;;;5.40;99.90;;;;;;5073506;28;20520;-50
2022/11/20 00:16:27;;;;;;;17.20;11.60;;;5.40;99.90;;;;;;5073173;28;20180;-50
2022/11/20 00:18:53;;;;;;;20.40;11.88;;;5.30;99.90;;;;;;5072783;28;20161;-51
2022/11/20 00:21:25;;;;;;;16.35;11.05;;;5.40;99.90;;;;;;5073175;28;20166;-49
2022/11/20 00:23:52;;;;;;;18.35;11.13;;;5.40;99.90;;;;;;5072919;28;20178;-51
2022/11/20 00:26:20;;;;;;;16.77;11.00;;;5.40;99.90;;;;;;5073472;28;20162;-49
2022/11/20 00:28:53;;;;;;;20.52;12.32;;;3.80;99.90;;;;;;5073069;28;20255;-50
2022/11/20 00:31:19;;;;;;;19.48;11.27;;;5.40;99.90;;;;;;5055462;28;20169;-49
2022/11/20 00:33:46;;;;;;;18.65;11.15;;;5.40;99.90;;;;;;5055564;28;20181;-50
2022/11/20 00:36:17;;;;;;;18.30;11.15;;;5.40;99.90;;;;;;5072890;28;20162;-49
2022/11/20 00:38:44;;;;;;;18.23;12.50;;;5.40;99.90;;;;;;5073099;28;20530;-50
2022/11/20 00:41:12;;;;;;;25.10;14.02;;;5.40;99.90;;;;;;5072988;28;20169;-49
2022/11/20 00:43:38;;;;;;;28.63;15.30;;;5.40;99.90;;;;;;5072749;28;20162;-49
2022/11/20 00:46:12;;;;;;;23.42;13.73;;;5.40;99.90;;;;;;5072710;28;20527;-49
2022/11/20 00:48:37;;;;;;;20.63;11.93;;;5.40;99.90;;;;;;5072599;28;20284;-50
2022/11/20 00:51:03;;;;;;;19.40;12.55;;;5.30;99.90;;;;;;5072808;28;20264;-50
2022/11/20 00:53:31;;;;;;;20.75;12.27;;;5.30;99.90;;;;;;5072695;28;20166;-51
2022/11/20 00:55:58;;;;;;;20.27;12.05;;;5.40;99.90;;;;;;5054595;28;20178;-51
2022/11/20 00:58:28;;;;;;;16.67;11.27;;;5.40;99.90;;;;;;5072610;28;20166;-51
2022/11/20 01:01:04;;;;;;;22.08;12.73;;;5.30;99.90;;;;;;5035955;28;1066880;-50
2022/11/20 01:03:37;;;;;;;18.77;10.68;;;5.30;99.90;;;;;;5073377;28;20718;-53
2022/11/20 01:06:12;;;;;;;71.20;31.17;;;5.30;99.90;;;;;;5073442;28;20170;-50
2022/11/20 01:08:38;;;;;;;23.45;13.35;;;5.30;99.90;;;;;;5073073;28;20161;-49
2022/11/20 01:11:15;;;;;;;19.73;11.93;;;5.30;99.90;;;;;;5073358;28;20193;-50
2022/11/20 01:13:42;;;;;;;16.35;11.05;;;5.30;99.90;;;;;;5073136;28;20169;-50
2022/11/20 01:16:12;;;;;;;26.45;13.85;;;5.30;99.90;;;;;;5073444;28;20174;-49
2022/11/20 01:18:40;;;;;;;23.92;13.75;;;5.30;99.90;;;;;;5073049;28;20178;-49
2022/11/20 01:21:11;;;;;;;18.58;11.80;;;5.40;99.90;;;;;;5073310;28;20181;-54
2022/11/20 01:23:38;;;;;;;19.88;12.13;;;5.30;99.90;;;;;;5073275;28;20618;-52
2022/11/20 01:26:07;;;;;;;19.13;11.70;;;5.30;99.90;;;;;;5073016;28;20166;-52
2022/11/20 01:28:33;;;;;;;16.52;11.32;;;5.20;99.90;;;;;;5072725;28;20165;-54
2022/11/20 01:31:00;;;;;;;25.63;13.90;;;5.30;99.90;;;;;;5072173;28;20174;-52
2022/11/20 01:33:26;;;;;;;23.58;13.30;;;5.30;99.90;;;;;;5073064;28;20174;-54
2022/11/20 01:35:52;;;;;;;17.90;11.10;;;5.30;99.90;;;;;;5072770;28;20634;-54
2022/11/20 01:38:19;;;;;;;17.83;12.30;;;5.20;99.90;;;;;;5073104;28;20166;-54
2022/11/20 01:40:53;;;;;;;26.10;13.38;;;5.20;99.90;;;;;;5055126;28;20257;-49
2022/11/20 01:43:22;;;;;;;21.30;12.82;;;5.20;99.90;;;;;;5072947;28;20253;-53
2022/11/20 01:46:13;;;;;;;16.48;11.48;;;5.20;99.90;;;;;;5073185;28;20180;-53
2022/11/20 01:48:42;;;;;;;30.15;15.02;;;5.20;99.90;;;;;;5072695;28;20173;-54
2022/11/20 01:51:16;;;;;;;17.75;10.85;;;5.20;99.90;;;;;;5072455;28;20185;-53
2022/11/20 01:53:43;;;;;;;16.73;10.75;;;5.20;99.90;;;;;;5072719;28;20184;-50
2022/11/20 01:56:11;;;;;;;30.90;16.33;;;5.20;99.90;;;;;;5072421;28;20201;-49
2022/11/20 01:58:41;;;;;;;19.75;12.48;;;5.20;99.90;;;;;;5072285;28;20194;-49
2022/11/20 02:01:07;;;;;;;26.88;13.27;;;5.20;99.90;;;;;;5072143;28;20217;-49
2022/11/20 02:03:33;;;;;;;18.88;12.23;;;5.20;99.90;;;;;;5072365;28;20209;-49
2022/11/20 02:06:37;;;;;;;18.80;11.52;;;5.20;99.90;;;;;;5072268;28;20491;-49
2022/11/20 02:09:03;;;;;;;18.98;11.32;;;5.10;99.90;;;;;;5017012;28;20274;-49
2022/11/20 02:11:31;;;;;;;20.70;13.07;;;5.10;99.90;;;;;;5072163;28;20295;-48
2022/11/20 02:13:57;;;;;;;18.35;12.82;;;5.10;99.90;;;;;;5072130;28;20170;-48
2022/11/20 02:16:36;;;;;;;17.77;11.90;;;5.20;99.90;;;;;;5072036;28;20159;-49
2022/11/20 02:19:05;;;;;;;20.35;12.35;;;5.20;99.90;;;;;;5072220;28;20641;-48
2022/11/20 02:21:45;;;;;;;16.40;11.05;;;5.20;99.90;;;;;;5071978;28;20173;-48
2022/11/20 02:24:18;;;;;;;19.50;11.93;;;5.20;99.90;;;;;;5059409;28;20162;-49
2022/11/20 02:27:07;;;;;;;16.40;11.15;;;5.20;99.90;;;;;;5052196;28;20642;-49
2022/11/20 02:29:38;;;;;;;17.05;11.50;;;5.20;99.90;;;;;;5051450;28;20206;-49
2022/11/20 02:32:03;;;;;;;20.10;11.63;;;5.20;99.90;;;;;;5051861;28;20163;-49
2022/11/20 02:34:29;;;;;;;16.50;11.07;;;5.10;99.90;;;;;;5051527;28;20553;-49
2022/11/20 02:36:57;;;;;;;16.95;10.82;;;5.10;99.90;;;;;;5052063;28;20523;-49
2022/11/20 02:39:25;;;;;;;18.38;11.73;;;5.10;99.90;;;;;;5051779;28;20170;-49
2022/11/20 02:41:53;;;;;;;18.05;11.80;;;5.00;99.90;;;;;;5051550;28;20627;-49
2022/11/20 02:44:19;;;;;;;16.83;11.63;;;5.00;99.90;;;;;;5051354;28;20216;-49
2022/11/20 02:46:45;;;;;;;17.45;11.20;;;5.10;99.90;;;;;;5051949;28;20678;-50
2022/11/20 02:49:10;;;;;;;16.33;10.73;;;5.10;99.90;;;;;;5051554;28;20198;-49
2022/11/20 02:51:36;;;;;;;16.70;11.55;;;5.10;99.90;;;;;;5051542;28;20174;-51
2022/11/20 02:54:02;;;;;;;21.17;12.43;;;5.10;99.90;;;;;;5051649;28;20242;-49
2022/11/20 02:56:27;;;;;;;18.67;11.77;;;5.10;99.90;;;;;;5051582;28;20174;-49
2022/11/20 02:58:53;;;;;;;18.23;11.95;;;5.00;99.90;;;;;;5051545;28;20245;-49
2022/11/20 03:01:18;;;;;;;21.25;12.07;;;4.90;99.90;;;;;;5051423;28;20211;-49
2022/11/20 03:03:44;;;;;;;17.88;11.68;;;4.90;99.90;;;;;;5051928;28;20169;-49
2022/11/20 03:06:10;;;;;;;17.45;11.93;;;4.90;99.90;;;;;;5051512;28;20253;-51
2022/11/20 03:08:35;;;;;;;15.82;10.95;;;5.00;99.90;;;;;;5051537;28;20182;-50
2022/11/20 03:11:06;;;;;;;19.95;11.73;;;5.00;99.90;;;;;;5033733;28;20166;-50
2022/11/20 03:13:32;;;;;;;18.75;10.85;;;4.90;99.90;;;;;;5051440;28;20262;-51
2022/11/20 03:15:58;;;;;;;18.90;11.32;;;4.90;99.90;;;;;;5033730;28;20177;-50
2022/11/20 03:18:24;;;;;;;18.25;11.50;;;4.90;99.90;;;;;;5051490;28;20175;-49
2022/11/20 03:20:49;;;;;;;20.63;12.35;;;4.90;99.90;;;;;;5051390;28;20193;-49
2022/11/20 03:23:15;;;;;;;20.25;12.27;;;5.00;99.90;;;;;;5051809;28;20189;-51
2022/11/20 03:25:40;;;;;;;16.95;11.68;;;5.00;99.90;;;;;;5051337;28;20167;-49
2022/11/20 03:28:06;;;;;;;21.08;12.15;;;5.00;99.90;;;;;;5051301;28;20175;-49
2022/11/20 03:30:31;;;;;;;18.92;12.15;;;5.00;99.90;;;;;;5051228;28;20233;-51
2022/11/20 03:32:57;;;;;;;20.77;12.43;;;5.10;99.90;;;;;;5051256;28;20174;-50
2022/11/20 03:35:22;;;;;;;20.42;12.27;;;5.10;99.90;;;;;;5051117;28;20536;-48
2022/11/20 03:37:48;;;;;;;19.67;11.90;;;5.00;99.90;;;;;;5033416;28;20265;-49
2022/11/20 03:40:14;;;;;;;17.52;11.07;;;5.10;99.90;;;;;;5051883;28;20178;-49
2022/11/20 03:42:45;;;;;;;20.10;12.82;;;5.00;99.90;;;;;;5051299;28;20178;-48
2022/11/20 03:45:12;;;;;;;20.33;12.93;;;5.00;99.90;;;;;;5051158;28;20633;-51
2022/11/20 03:47:38;;;;;;;21.17;13.65;;;5.00;99.90;;;;;;5051045;28;20159;-49
2022/11/20 03:50:03;;;;;;;27.27;13.98;;;5.00;99.90;;;;;;5051081;28;20666;-50
2022/11/20 03:52:29;;;;;;;21.83;13.98;;;5.00;99.90;;;;;;5051514;28;20167;-51
2022/11/20 03:54:55;;;;;;;20.00;12.85;;;5.00;99.90;;;;;;5036989;28;20170;-50
2022/11/20 03:57:20;;;;;;;20.10;12.60;;;5.00;99.90;;;;;;5054962;28;20163;-49
2022/11/20 03:59:46;;;;;;;20.00;13.20;;;5.00;99.90;;;;;;5054894;28;20665;-52
2022/11/20 04:02:11;;;;;;;20.83;13.27;;;5.10;99.90;;;;;;5054636;28;20190;-53
2022/11/20 04:04:37;;;;;;;24.73;14.10;;;5.00;99.90;;;;;;5054580;28;20177;-50
2022/11/20 04:07:03;;;;;;;22.10;13.15;;;5.00;99.90;;;;;;5054574;28;20231;-51
2022/11/20 04:09:28;;;;;;;19.77;13.02;;;5.00;99.90;;;;;;5054379;28;20213;-53
2022/11/20 04:11:54;;;;;;;19.80;12.52;;;5.10;99.90;;;;;;5036562;28;20171;-49
2022/11/20 04:14:19;;;;;;;21.63;13.25;;;5.10;99.90;;;;;;5054393;28;20665;-51
2022/11/20 04:16:45;;;;;;;22.05;12.65;;;5.10;99.90;;;;;;5054721;28;20531;-50
2022/11/20 04:19:14;;;;;;;22.52;13.68;;;5.20;99.90;;;;;;5054347;28;20524;-49
2022/11/20 04:21:40;;;;;;;24.35;13.18;;;5.20;99.90;;;;;;5054564;28;20232;-49
2022/11/20 04:24:06;;;;;;;24.58;14.30;;;5.10;99.90;;;;;;5054238;28;20169;-52
2022/11/20 04:26:32;;;;;;;22.13;13.82;;;5.10;99.90;;;;;;5054183;28;20574;-49
2022/11/20 04:28:58;;;;;;;22.95;13.73;;;5.10;99.90;;;;;;5054309;28;20712;-49
2022/11/20 04:31:27;;;;;;;25.58;14.20;;;5.10;99.90;;;;;;5053944;28;20175;-52
2022/11/20 04:33:53;;;;;;;18.38;12.98;;;5.10;99.90;;;;;;5054048;28;20187;-51
2022/11/20 04:36:26;;;;;;;26.70;14.50;;;5.20;99.90;;;;;;5054217;28;20217;-51
2022/11/20 04:38:54;;;;;;;25.92;15.60;;;5.20;99.90;;;;;;5053960;28;20163;-51
2022/11/20 04:41:22;;;;;;;22.08;13.80;;;5.10;99.90;;;;;;5053894;28;20178;-49
2022/11/20 04:43:53;;;;;;;25.48;14.68;;;5.00;99.90;;;;;;5054143;28;20162;-50
2022/11/20 04:46:19;;;;;;;25.13;15.10;;;5.00;99.90;;;;;;5053729;28;20173;-51
2022/11/20 04:48:46;;;;;;;24.27;14.38;;;5.10;99.90;;;;;;5054047;28;20171;-49
2022/11/20 04:51:12;;;;;;;23.48;14.20;;;5.10;99.90;;;;;;5053776;28;20269;-53
2022/11/20 04:53:38;;;;;;;24.27;13.75;;;5.10;99.90;;;;;;5053953;28;20558;-50
2022/11/20 04:56:06;;;;;;;25.05;15.13;;;5.20;99.90;;;;;;5053625;28;20176;-49
2022/11/20 04:58:33;;;;;;;23.35;14.07;;;5.20;99.90;;;;;;5053330;28;20163;-49
2022/11/20 05:01:03;;;;;;;23.33;14.27;;;5.20;99.90;;;;;;5053405;28;20250;-49
2022/11/20 05:03:29;;;;;;;22.70;14.60;;;5.20;99.90;;;;;;5053185;28;20626;-51
2022/11/20 05:05:54;;;;;;;21.45;13.30;;;5.30;99.90;;;;;;5052652;28;20177;-50
2022/11/20 05:08:20;;;;;;;22.75;13.73;;;5.30;99.90;;;;;;5053391;28;20202;-49
2022/11/20 05:10:45;;;;;;;22.98;12.68;;;5.20;99.90;;;;;;5035771;28;20225;-49
2022/11/20 05:13:11;;;;;;;21.00;13.25;;;5.20;99.90;;;;;;5053313;28;20249;-50
2022/11/20 05:15:36;;;;;;;21.27;13.52;;;5.20;99.90;;;;;;5053294;28;20257;-52
2022/11/20 05:18:02;;;;;;;24.63;13.73;;;5.20;99.90;;;;;;5053343;28;20163;-50
2022/11/20 05:20:27;;;;;;;23.48;12.75;;;5.20;99.90;;;;;;5053436;28;20178;-49
2022/11/20 05:22:57;;;;;;;21.65;12.45;;;5.20;99.90;;;;;;5053090;28;20527;-49
2022/11/20 05:25:22;;;;;;;23.05;13.55;;;5.20;99.90;;;;;;5053101;28;20221;-49
2022/11/20 05:27:48;;;;;;;20.55;12.38;;;5.30;99.90;;;;;;5053522;28;20195;-49
2022/11/20 05:30:14;;;;;;;19.60;12.63;;;5.20;99.90;;;;;;5053222;28;20260;-49
2022/11/20 05:32:39;;;;;;;23.55;13.13;;;5.30;99.90;;;;;;5053221;28;20173;-48
2022/11/20 05:35:05;;;;;;;23.67;13.80;;;5.30;99.90;;;;;;5052853;28;20228;-49
2022/11/20 05:37:31;;;;;;;21.65;13.10;;;5.40;99.90;;;;;;5053089;28;20236;-48
2022/11/20 05:39:56;;;;;;;21.08;13.65;;;5.30;99.90;;;;;;5052817;28;20166;-48
2022/11/20 05:42:30;;;;;;;23.23;13.32;;;5.40;99.90;;;;;;5052666;28;20693;-49
2022/11/20 05:45:00;;;;;;;21.55;13.05;;;5.40;99.90;;;;;;5052736;28;20163;-49
2022/11/20 05:47:27;;;;;;;23.35;13.02;;;5.40;99.90;;;;;;5052885;28;20170;-49
2022/11/20 05:49:53;;;;;;;24.15;12.95;;;5.40;99.90;;;;;;5052569;28;20202;-48
2022/11/20 05:52:18;;;;;;;20.63;11.80;;;5.40;99.90;;;;;;5052628;28;20249;-49
2022/11/20 05:54:44;;;;;;;19.83;12.75;;;5.40;99.90;;;;;;5035025;28;20538;-48
2022/11/20 05:57:09;;;;;;;18.77;12.18;;;5.40;99.90;;;;;;5052475;28;20249;-49
2022/11/20 05:59:35;;;;;;;20.98;13.77;;;5.30;99.90;;;;;;5052284;28;20210;-49
2022/11/20 06:02:01;;;;;;;19.20;12.32;;;5.20;99.90;;;;;;5052489;28;20174;-48
2022/11/20 06:04:26;;;;;;;21.48;13.23;;;5.20;99.90;;;;;;5052360;28;20174;-48
2022/11/20 06:06:52;;;;;;;21.55;13.20;;;5.20;99.90;;;;;;5052402;28;20201;-48
2022/11/20 06:09:17;;;;;;;20.95;12.77;;;5.20;99.90;;;;;;5052582;28;20199;-49
2022/11/20 06:11:43;;;;;;;24.75;12.68;;;5.30;99.90;;;;;;5052596;28;20202;-49
2022/11/20 06:14:08;;;;;;;20.27;12.77;;;5.20;99.90;;;;;;5052156;28;20169;-49
2022/11/20 06:16:34;;;;;;;23.13;13.38;;;5.30;99.90;;;;;;5051847;28;20644;-48
2022/11/20 06:19:00;;;;;;;28.67;15.70;;;5.30;99.90;;;;;;5052201;28;20171;-49
2022/11/20 06:21:25;;;;;;;24.38;13.90;;;5.20;99.90;;;;;;5034297;28;20193;-49
2022/11/20 06:23:52;;;;;;;25.45;14.45;;;5.20;99.90;;;;;;5052014;28;20175;-49
2022/11/20 06:26:20;;;;;;;22.45;13.95;;;5.20;99.90;;;;;;5052023;28;20166;-49
2022/11/20 06:28:46;;;;;;;25.10;14.07;;;5.20;99.90;;;;;;5051990;28;20171;-49
2022/11/20 06:31:14;;;;;;;23.60;13.50;;;5.20;99.90;;;;;;5051957;28;20167;-49
2022/11/20 06:33:40;;;;;;;22.50;13.88;;;5.20;99.90;;;;;;5052135;28;20252;-49
2022/11/20 06:36:06;;;;;;;21.35;13.80;;;5.20;99.90;;;;;;5051846;28;20630;-49
2022/11/20 06:38:31;;;;;;;22.88;13.82;;;5.20;99.90;;;;;;5051826;28;20174;-50
2022/11/20 06:40:57;;;;;;;23.65;16.33;;;5.10;99.90;;;;;;5051752;28;20198;-48
2022/11/20 06:43:23;;;;;;;23.88;13.75;;;5.10;99.90;;;;;;5051695;28;20249;-48
2022/11/20 06:45:56;;;;;;;22.77;13.25;;;5.10;99.90;;;;;;5051959;28;20177;-49
2022/11/20 06:48:23;;;;;;;20.15;12.65;;;5.10;99.90;;;;;;5051689;28;20174;-48
2022/11/20 06:50:49;;;;;;;20.65;13.63;;;5.10;99.90;;;;;;5051636;28;20198;-48
2022/11/20 06:53:15;;;;;;;22.65;13.20;;;5.10;99.90;;;;;;5052260;28;20223;-49
2022/11/20 06:55:47;;;;;;;19.88;12.60;;;5.20;99.90;;;;;;5051612;28;20193;-49
2022/11/20 06:58:14;;;;;;;19.80;12.02;;;5.20;99.90;;;;;;5051961;28;20194;-48
2022/11/20 07:00:40;;;;;;;19.08;13.18;;;5.20;99.90;;;;;;5033680;28;20581;-48
2022/11/20 07:03:08;;;;;;;20.95;13.30;;;5.20;99.90;;;;;;5051588;28;20174;-48
2022/11/20 07:05:34;;;;;;;21.92;13.43;;;5.20;99.90;;;;;;5051708;28;20171;-48
2022/11/20 07:08:00;;;;;;;20.45;13.48;;;5.20;99.90;;;;;;5051510;28;20621;-49
2022/11/20 07:10:25;;;;;;;24.83;14.63;;;5.20;99.90;;;;;;5051392;28;20255;-48
2022/11/20 07:12:52;;;;;;;23.45;13.18;;;5.20;99.90;;;;;;5051408;28;20209;-48
2022/11/20 07:15:19;;;;;;;24.15;13.88;;;5.20;99.90;;;;;;5051458;28;20269;-48
2022/11/20 07:17:45;;;;;;;21.02;13.38;;;5.20;99.90;;;;;;5051744;28;20253;-49
2022/11/20 07:20:11;;;;;;;23.08;13.30;;;5.10;99.90;;;;;;5051456;28;20205;-49
2022/11/20 07:22:37;;;;;;;22.77;13.88;;;5.10;99.90;;;;;;5051335;28;20623;-49
2022/11/20 07:25:03;;;;;;;22.88;14.73;;;5.10;99.90;;;;;;5051294;28;20171;-48
2022/11/20 07:27:29;;;;;;;22.80;13.38;;;5.10;99.90;;;;;;5051716;28;20177;-48
2022/11/20 07:29:55;;;;;;;23.40;13.88;;;5.10;99.90;;;;;;5055150;28;20206;-48
2022/11/20 07:32:21;;;;;;;22.75;14.05;;;5.10;99.90;;;;;;5055150;28;20645;-48
2022/11/20 07:34:46;;;;;;;25.48;14.05;;;5.10;99.90;;;;;;5055802;28;20682;-48
2022/11/20 07:37:12;;;;;;;24.23;13.85;;;5.10;99.90;;;;;;5055448;28;20159;-48
2022/11/20 07:39:38;;;;;;;24.95;14.98;;;5.10;99.90;;;;;;5055108;28;20159;-48
2022/11/20 07:42:03;;;;;;;24.75;14.10;;;5.20;99.90;;;;;;5055073;28;20163;-48
2022/11/20 07:44:29;;;;;;;26.70;14.63;;;5.10;99.90;;;;;;5055030;28;20206;-49
2022/11/20 07:46:54;;;;;;;24.63;15.32;;;5.10;99.90;;;;;;5054882;28;20678;-51
2022/11/20 07:49:20;;;;;;;26.60;15.60;;;5.20;99.90;;;;;;5054756;28;20198;-50
2022/11/20 07:51:45;;;;;;;25.27;15.68;;;5.20;99.90;;;;;;5055176;28;20174;-49
2022/11/20 07:54:11;;;;;;;40.33;21.52;;;5.20;99.90;;;;;;5054826;28;20260;-49
2022/11/20 07:56:36;;;;;;;35.53;19.55;;;5.20;99.90;;;;;;5054766;28;20170;-49
2022/11/20 07:59:03;;;;;;;27.90;16.15;;;5.20;99.90;;;;;;5054640;28;20279;-49
2022/11/20 08:01:28;;;;;;;27.38;16.67;;;5.20;99.90;;;;;;5054457;28;20218;-49
2022/11/20 08:03:54;;;;;;;28.67;17.33;;;5.20;99.90;;;;;;5054681;28;20167;-49
2022/11/20 08:06:20;;;;;;;26.95;16.15;;;5.20;99.90;;;;;;5054812;28;20163;-48
2022/11/20 08:08:45;;;;;;;27.15;16.85;;;5.30;99.90;;;;;;5055028;28;20198;-49
2022/11/20 08:14:13;;;;;;;29.70;16.92;;;5.20;99.90;;;;;;5054449;28;20174;-49
2022/11/20 08:16:49;;;;;;;30.77;16.40;;;5.20;99.90;;;;;;5054618;28;20202;-50
2022/11/20 08:19:16;;;;;;;30.63;17.17;;;5.30;99.90;;;;;;5054288;28;20170;-50
2022/11/20 08:21:43;;;;;;;31.15;17.20;;;5.30;99.90;;;;;;5054712;28;20646;-48
2022/11/20 08:24:09;;;;;;;32.13;17.45;;;5.20;99.90;;;;;;5053961;28;20197;-49
2022/11/20 08:26:36;;;;;;;39.15;18.92;;;5.30;99.90;;;;;;5054108;28;20238;-49
2022/11/20 08:29:03;;;;;;;34.08;18.27;;;5.10;99.90;;;;;;5053934;28;20198;-49
2022/11/20 08:31:29;;;;;;;28.33;16.77;;;5.20;99.90;;;;;;5054062;28;20179;-49
2022/11/20 08:33:55;;;;;;;38.78;18.52;;;5.40;99.90;;;;;;5053525;28;20635;-49
2022/11/20 08:36:22;;;;;;;31.45;17.33;;;5.40;99.90;;;;;;5054241;28;20193;-48
2022/11/20 08:38:52;;;;;;;29.98;16.92;;;5.30;99.90;;;;;;5053362;28;20165;-49
2022/11/20 08:41:24;;;;;;;39.13;18.70;;;5.40;99.90;;;;;;5053771;28;20181;-49
2022/11/20 08:43:50;;;;;;;33.80;18.70;;;5.50;99.90;;;;;;5053694;28;20170;-49
2022/11/20 08:46:16;;;;;;;35.97;18.17;;;5.40;99.90;;;;;;5054130;28;20262;-49
2022/11/20 08:48:43;;;;;;;34.67;19.17;;;5.50;99.90;;;;;;5053707;28;20171;-50
2022/11/20 08:51:09;;;;;;;31.77;18.55;;;5.50;99.90;;;;;;5053167;28;20193;-49
2022/11/20 08:53:34;;;;;;;28.55;15.60;;;5.60;99.90;;;;;;5034130;28;20525;-49
2022/11/20 08:56:00;;;;;;;36.15;18.02;;;5.70;99.90;;;;;;5051925;28;20174;-49
2022/11/20 08:58:26;;;;;;;32.30;18.35;;;5.60;99.90;;;;;;5053564;28;20166;-49
2022/11/20 09:00:52;;;;;;;32.83;18.13;;;5.60;99.90;;;;;;5053669;28;20699;-49
2022/11/20 09:03:18;;;;;;;34.58;17.40;;;5.60;99.90;;;;;;5059683;28;20167;-49
2022/11/20 09:05:43;;;;;;;33.67;18.40;;;5.70;99.90;;;;;;5052501;28;20174;-49
2022/11/20 09:08:09;;;;;;;28.48;15.98;;;5.80;99.90;;;;;;5051959;28;20627;-49
2022/11/20 09:10:36;;;;;;;31.13;16.98;;;5.90;99.90;;;;;;5051494;28;20210;-48
2022/11/20 09:13:02;;;;;;;32.38;17.23;;;5.90;99.90;;;;;;5051652;28;20709;-47
2022/11/20 09:15:27;;;;;;;31.45;15.75;;;6.10;99.90;;;;;;5051474;28;20241;-49
2022/11/20 09:17:59;;;;;;;27.42;15.90;;;6.00;99.90;;;;;;5051623;28;20224;-47
2022/11/20 09:20:26;;;;;;;26.63;14.45;;;6.00;99.90;;;;;;5033513;28;20626;-48
2022/11/20 09:22:51;;;;;;;20.13;13.68;;;6.00;99.90;;;;;;5051735;28;20178;-48
2022/11/20 09:25:17;;;;;;;27.60;15.15;;;6.20;99.90;;;;;;5051444;28;20619;-48
2022/11/20 09:27:44;;;;;;;22.23;13.20;;;6.20;99.90;;;;;;5051772;28;20198;-49
2022/11/20 09:30:10;;;;;;;22.02;13.25;;;6.10;99.90;;;;;;5051300;28;20198;-57
2022/11/20 09:32:35;;;;;;;21.02;13.23;;;6.10;99.90;;;;;;5051203;28;20198;-49
2022/11/20 09:35:01;;;;;;;22.27;13.70;;;6.10;99.90;;;;;;5051370;28;20273;-51
2022/11/20 09:37:27;;;;;;;20.73;13.23;;;5.90;99.90;;;;;;5066239;28;20182;-50
2022/11/20 09:39:53;;;;;;;23.05;14.02;;;5.90;99.90;;;;;;5071240;28;20713;-49
2022/11/20 09:42:44;;;;;;;23.08;13.50;;;6.00;99.90;;;;;;5070948;28;20194;-51
2022/11/20 09:45:43;;;;;;;25.33;13.35;;;6.00;99.90;;;;;;5071047;28;20169;-49
2022/11/20 09:48:29;;;;;;;17.00;11.57;;;6.00;99.90;;;;;;5071014;28;20181;-52
2022/11/20 09:51:24;;;;;;;18.40;11.20;;;6.10;99.90;;;;;;5070017;28;20661;-50
2022/11/20 09:54:14;;;;;;;20.35;12.02;;;6.10;99.90;;;;;;5070936;28;20657;-49
2022/11/20 09:56:44;;;;;;;20.40;13.45;;;6.30;99.90;;;;;;5071008;28;20170;-50
2022/11/20 09:59:32;;;;;;;21.38;11.63;;;6.10;99.90;;;;;;5070433;28;20646;-51
2022/11/20 10:01:59;;;;;;;21.80;12.38;;;6.20;99.90;;;;;;5069453;28;20182;-50
2022/11/20 10:04:25;;;;;;;28.33;14.50;;;6.30;99.90;;;;;;5050846;28;20581;-50
2022/11/20 10:07:04;;;;;;;23.13;13.70;;;6.20;99.90;;;;;;5050811;28;20202;-48
2022/11/20 10:09:37;;;;;;;22.50;12.60;;;6.20;99.90;;;;;;5050508;28;20202;-49
2022/11/20 10:12:17;;;;;;;23.08;13.15;;;6.20;99.90;;;;;;5050516;28;20224;-50
2022/11/20 10:14:55;;;;;;;19.95;13.32;;;6.40;99.90;;;;;;5050907;28;20166;-50
2022/11/20 10:17:46;;;;;;;23.25;12.63;;;6.40;99.90;;;;;;5050433;28;20165;-50
2022/11/20 10:20:28;;;;;;;23.70;12.77;;;6.60;99.90;;;;;;5050495;28;20179;-50
2022/11/20 10:23:27;;;;;;;19.20;11.75;;;6.60;99.90;;;;;;5066003;28;20260;-49
2022/11/20 10:26:35;;;;;;;20.42;11.77;;;6.60;99.90;;;;;;5070229;28;20162;-50
2022/11/20 10:29:09;;;;;;;24.13;14.50;;;6.70;99.90;;;;;;5022589;28;20641;-52
2022/11/20 10:31:37;;;;;;;21.63;12.70;;;6.70;99.90;;;;;;5070013;28;20679;-50
2022/11/20 10:34:16;;;;;;;27.67;15.40;;;6.70;99.90;;;;;;5070203;28;20169;-51
2022/11/20 10:36:50;;;;;;;19.55;12.20;;;6.70;99.90;;;;;;5052507;28;20598;-51
2022/11/20 10:39:24;;;;;;;35.08;17.83;;;9.40;99.90;;;;;;5070491;28;20168;-50
2022/11/20 10:41:53;;;;;;;24.25;12.52;;;6.80;99.90;;;;;;5070227;28;20268;-50
2022/11/20 10:47:21;;;;;;;30.40;16.58;;;6.70;99.90;;;;;;5070088;28;20230;-50
2022/11/20 10:49:53;;;;;;;76.50;41.42;;;6.70;99.90;;;;;;5070582;28;20561;-54
2022/11/20 10:52:32;;;;;;;22.98;14.35;;;6.80;99.90;;;;;;5069744;28;20640;-49
2022/11/20 10:55:15;;;;;;;23.38;14.40;;;6.70;99.90;;;;;;5070188;28;20173;-48
2022/11/20 10:58:26;;;;;;;25.38;13.98;;;6.50;99.90;;;;;;5070096;28;20173;-48
2022/11/20 11:00:52;;;;;;;29.08;15.93;;;6.50;99.90;;;;;;5004678;28;20675;-51
2022/11/20 11:03:25;;;;;;;25.50;14.13;;;6.50;99.90;;;;;;5033596;28;20221;-51
2022/11/20 11:05:59;;;;;;;32.58;19.35;;;6.50;99.90;;;;;;5032747;28;20226;-49
2022/11/20 11:08:29;;;;;;;27.38;17.27;;;6.50;99.90;;;;;;5032369;28;20198;-52
2022/11/20 11:11:01;;;;;;;34.63;17.98;;;6.50;99.90;;;;;;5034250;28;20206;-53
2022/11/20 11:13:30;;;;;;;42.47;24.55;;;6.50;99.90;;;;;;5033929;28;20689;-50
2022/11/20 11:15:56;;;;;;;22.98;14.98;;;6.50;99.90;;;;;;5034130;28;20279;-48
2022/11/20 11:18:33;;;;;;;25.65;15.48;;;6.40;99.90;;;;;;5034032;28;20207;-47
2022/11/20 11:21:01;;;;;;;22.33;14.07;;;6.50;99.90;;;;;;5033870;28;20163;-45
2022/11/20 11:23:36;;;;;;;22.05;13.13;;;6.60;99.90;;;;;;5033768;28;20179;-47
2022/11/20 11:26:06;;;;;;;23.55;14.88;;;6.60;99.90;;;;;;5033870;28;20202;-50
2022/11/20 11:28:32;;;;;;;27.02;14.95;;;6.60;99.90;;;;;;5032959;28;20665;-52
2022/11/20 11:30:58;;;;;;;22.77;13.95;;;6.60;99.90;;;;;;5033570;28;20203;-46
2022/11/20 11:33:25;;;;;;;30.27;16.27;;;6.60;99.90;;;;;;5033546;28;20198;-47
2022/11/20 11:36:03;;;;;;;23.20;14.90;;;6.70;99.90;;;;;;5033381;28;20163;-49
2022/11/20 11:38:36;;;;;;;24.38;13.68;;;6.60;99.90;;;;;;5033445;28;20195;-47
2022/11/20 11:41:03;;;;;;;30.80;18.20;;;6.70;99.90;;;;;;5033313;28;20658;-49
2022/11/20 11:46:36;;;;;;;22.83;13.95;;;6.60;99.90;;;;;;5033847;28;20186;-47
2022/11/20 11:49:16;;;;;;;25.05;14.65;;;6.50;99.90;;;;;;5033578;28;20175;-52
2022/11/20 11:51:51;;;;;;;27.77;15.43;;;6.40;99.90;;;;;;5033362;28;20175;-59
2022/11/20 11:54:23;;;;;;;22.60;13.68;;;6.40;99.90;;;;;;5033324;28;20169;-57
2022/11/20 11:56:50;;;;;;;21.90;14.23;;;6.30;99.90;;;;;;5032749;28;20171;-57
2022/11/20 11:59:25;;;;;;;22.95;13.98;;;6.40;99.90;;;;;;5019940;28;20180;-56
2022/11/20 12:01:58;;;;;;;25.77;14.50;;;6.40;99.90;;;;;;5052873;28;20640;-57
2022/11/20 12:04:30;;;;;;;28.05;16.58;;;6.50;99.90;;;;;;5052801;28;20159;-55
2022/11/20 12:07:07;;;;;;;25.35;16.20;;;6.60;99.90;;;;;;5052765;28;20208;-55
2022/11/20 12:09:42;;;;;;;26.42;16.00;;;6.50;99.90;;;;;;5052601;28;20209;-53
2022/11/20 12:12:17;;;;;;;25.90;15.65;;;6.50;99.90;;;;;;5052789;28;20495;-54
2022/11/20 12:14:47;;;;;;;23.52;14.50;;;6.40;99.90;;;;;;5052213;28;20163;-50
2022/11/20 12:17:13;;;;;;;25.23;15.77;;;6.60;99.90;;;;;;5052399;28;20229;-55
2022/11/20 12:19:39;;;;;;;32.88;17.73;;;6.60;99.90;;;;;;5052499;28;20249;-55
2022/11/20 12:22:31;;;;;;;24.30;14.55;;;6.60;99.90;;;;;;5052538;28;20170;-56
2022/11/20 12:25:00;;;;;;;28.85;15.13;;;6.60;99.90;;;;;;5052150;28;20167;-54
2022/11/20 12:27:29;;;;;;;22.13;14.30;;;6.60;99.90;;;;;;5052292;28;20542;-56
2022/11/20 12:30:03;;;;;;;26.98;15.13;;;6.50;99.90;;;;;;5052268;28;20736;-55
2022/11/20 12:32:54;;;;;;;29.80;19.50;;;6.50;99.90;;;;;;5052221;28;20576;-55
2022/11/20 12:35:58;;;;;;;26.35;17.13;;;6.70;99.90;;;;;;5052211;28;20642;-56
2022/11/20 12:38:51;;;;;;;28.35;18.15;;;6.70;99.90;;;;;;5052261;28;20220;-47
2022/11/20 12:45:09;;;;;;;29.20;17.63;;;6.60;99.90;;;;;;5052108;28;20232;-50
2022/11/20 12:47:51;;;;;;;26.27;15.52;;;6.70;99.90;;;;;;5051713;28;20585;-56
2022/11/20 12:50:54;;;;;;;25.83;16.00;;;6.60;99.90;;;;;;5052045;28;20268;-47
2022/11/20 12:53:38;;;;;;;25.85;16.33;;;6.70;99.90;;;;;;5051722;28;20532;-53
2022/11/20 12:56:39;;;;;;;27.33;16.80;;;6.80;99.90;;;;;;5051501;28;20173;-48
2022/11/20 12:59:15;;;;;;;29.17;16.60;;;6.90;99.90;;;;;;5052327;28;20170;-50
2022/11/20 13:01:47;;;;;;;30.60;15.95;;;7.00;99.90;;;;;;5055712;28;20188;-48